Huntington Lower Village, Vermont
Current Conditions -  °F | °C
As of 3:54 AM on Sunday 26 Oct 2014 (Local Time) from KBTV Reporting Station
Scattered Clouds Scattered Clouds  
Wind Chill: 48°   Ceiling: Unl
Heat Index: 48°   Visibility: 10mi
Dew Point: 43°   Wind: 3mph
Humidity: 83%   Direction: 220°SW
Pressure: 29.42"   Gusts: NA
Location:  44.3099°N, 72.982°W
Report Text: KBTV 260754Z AUTO 22003KT 10SM SCT055 09/06 A2942 RMK AO2 SLP964 T00890061
Loading
Personal Weather Stations






























Interactive Weather Map
Tropical Storm Tracking
New forecast layout! Learn more

10-Day Weather Forecast

Advertisements
Track Severe Weather on mobile